sensor_id;sensor_type;location;lat;lon;timestamp;temperature;humidity
52656;SHT85;35474;51.032;6.998;2023-02-19T00:01:11;10.59;91.93
52656;SHT85;35474;51.032;6.998;2023-02-19T00:03:44;10.60;91.91
52656;SHT85;35474;51.032;6.998;2023-02-19T00:06:15;10.62;91.76
52656;SHT85;35474;51.032;6.998;2023-02-19T00:08:41;10.62;91.63
52656;SHT85;35474;51.032;6.998;2023-02-19T00:11:09;10.62;91.41
52656;SHT85;35474;51.032;6.998;2023-02-19T00:13:40;10.65;91.33
52656;SHT85;35474;51.032;6.998;2023-02-19T00:16:09;10.66;90.94
52656;SHT85;35474;51.032;6.998;2023-02-19T00:18:39;10.77;90.16
52656;SHT85;35474;51.032;6.998;2023-02-19T00:21:06;10.81;89.89
52656;SHT85;35474;51.032;6.998;2023-02-19T00:23:33;10.81;89.65
52656;SHT85;35474;51.032;6.998;2023-02-19T00:26:03;10.83;89.68
52656;SHT85;35474;51.032;6.998;2023-02-19T00:28:43;10.81;90.03
52656;SHT85;35474;51.032;6.998;2023-02-19T00:33:44;10.76;90.30
52656;SHT85;35474;51.032;6.998;2023-02-19T00:36:14;10.81;90.28
52656;SHT85;35474;51.032;6.998;2023-02-19T00:38:41;10.76;90.45
52656;SHT85;35474;51.032;6.998;2023-02-19T00:41:08;10.72;90.62
52656;SHT85;35474;51.032;6.998;2023-02-19T00:44:04;10.70;90.87
52656;SHT85;35474;51.032;6.998;2023-02-19T00:46:36;10.68;90.98
52656;SHT85;35474;51.032;6.998;2023-02-19T00:49:05;10.70;90.93
52656;SHT85;35474;51.032;6.998;2023-02-19T00:51:33;10.70;90.89
52656;SHT85;35474;51.032;6.998;2023-02-19T00:54:01;10.79;90.61
52656;SHT85;35474;51.032;6.998;2023-02-19T00:56:29;10.75;90.50
52656;SHT85;35474;51.032;6.998;2023-02-19T01:00:34;10.79;89.90
52656;SHT85;35474;51.032;6.998;2023-02-19T01:03:01;10.87;89.22
52656;SHT85;35474;51.032;6.998;2023-02-19T01:05:27;10.87;88.80
52656;SHT85;35474;51.032;6.998;2023-02-19T01:07:53;10.90;88.79
52656;SHT85;35474;51.032;6.998;2023-02-19T01:10:20;10.93;88.49
52656;SHT85;35474;51.032;6.998;2023-02-19T01:12:46;10.93;88.30
52656;SHT85;35474;51.032;6.998;2023-02-19T01:15:12;10.97;87.98
52656;SHT85;35474;51.032;6.998;2023-02-19T01:17:39;10.99;87.97
52656;SHT85;35474;51.032;6.998;2023-02-19T01:20:05;10.93;88.15
52656;SHT85;35474;51.032;6.998;2023-02-19T01:22:32;10.93;88.17
52656;SHT85;35474;51.032;6.998;2023-02-19T01:24:59;10.90;88.22
52656;SHT85;35474;51.032;6.998;2023-02-19T01:27:25;10.94;88.11
52656;SHT85;35474;51.032;6.998;2023-02-19T01:29:52;10.93;87.85
52656;SHT85;35474;51.032;6.998;2023-02-19T01:32:18;10.97;87.88
52656;SHT85;35474;51.032;6.998;2023-02-19T01:34:45;10.96;87.87
52656;SHT85;35474;51.032;6.998;2023-02-19T01:37:11;10.93;87.69
52656;SHT85;35474;51.032;6.998;2023-02-19T01:39:38;10.99;87.52
52656;SHT85;35474;51.032;6.998;2023-02-19T01:42:05;10.96;87.31
52656;SHT85;35474;51.032;6.998;2023-02-19T01:47:04;10.96;87.21
52656;SHT85;35474;51.032;6.998;2023-02-19T01:49:32;10.97;87.01
52656;SHT85;35474;51.032;6.998;2023-02-19T01:52:25;10.96;87.03
52656;SHT85;35474;51.032;6.998;2023-02-19T01:54:57;10.96;87.01
52656;SHT85;35474;51.032;6.998;2023-02-19T01:57:29;10.99;87.31
52656;SHT85;35474;51.032;6.998;2023-02-19T02:00:02;10.94;87.25
52656;SHT85;35474;51.032;6.998;2023-02-19T02:02:33;10.96;87.15
52656;SHT85;35474;51.032;6.998;2023-02-19T02:04:59;10.97;87.16
52656;SHT85;35474;51.032;6.998;2023-02-19T02:07:27;10.97;87.13
52656;SHT85;35474;51.032;6.998;2023-02-19T02:10:12;10.96;87.21
52656;SHT85;35474;51.032;6.998;2023-02-19T02:12:48;10.97;87.28
52656;SHT85;35474;51.032;6.998;2023-02-19T02:15:16;10.91;87.30
52656;SHT85;35474;51.032;6.998;2023-02-19T02:17:54;10.94;87.33
52656;SHT85;35474;51.032;6.998;2023-02-19T02:20:31;10.94;87.41
52656;SHT85;35474;51.032;6.998;2023-02-19T02:26:42;10.83;88.27
52656;SHT85;35474;51.032;6.998;2023-02-19T02:29:04;10.81;88.38
52656;SHT85;35474;51.032;6.998;2023-02-19T02:32:10;10.84;88.13
52656;SHT85;35474;51.032;6.998;2023-02-19T02:34:44;10.84;88.14
52656;SHT85;35474;51.032;6.998;2023-02-19T02:37:15;10.87;88.09
52656;SHT85;35474;51.032;6.998;2023-02-19T02:39:42;10.86;88.05
52656;SHT85;35474;51.032;6.998;2023-02-19T02:42:10;10.87;88.03
52656;SHT85;35474;51.032;6.998;2023-02-19T02:44:53;10.84;88.02
52656;SHT85;35474;51.032;6.998;2023-02-19T02:47:43;10.83;88.18
52656;SHT85;35474;51.032;6.998;2023-02-19T02:50:22;10.81;88.17
52656;SHT85;35474;51.032;6.998;2023-02-19T02:52:56;10.77;88.38
52656;SHT85;35474;51.032;6.998;2023-02-19T02:55:46;10.76;88.50
52656;SHT85;35474;51.032;6.998;2023-02-19T02:58:16;10.73;88.41
52656;SHT85;35474;51.032;6.998;2023-02-19T03:00:45;10.79;88.30
52656;SHT85;35474;51.032;6.998;2023-02-19T03:03:36;10.80;88.09
52656;SHT85;35474;51.032;6.998;2023-02-19T03:06:06;10.84;87.96
52656;SHT85;35474;51.032;6.998;2023-02-19T03:08:41;10.84;87.98
52656;SHT85;35474;51.032;6.998;2023-02-19T03:11:13;10.83;87.88
52656;SHT85;35474;51.032;6.998;2023-02-19T03:14:07;10.80;87.88
52656;SHT85;35474;51.032;6.998;2023-02-19T03:17:05;10.84;87.63
52656;SHT85;35474;51.032;6.998;2023-02-19T03:19:56;10.79;87.73
52656;SHT85;35474;51.032;6.998;2023-02-19T03:22:26;10.81;87.55
52656;SHT85;35474;51.032;6.998;2023-02-19T03:25:00;10.84;87.39
52656;SHT85;35474;51.032;6.998;2023-02-19T03:27:50;10.83;87.21
52656;SHT85;35474;51.032;6.998;2023-02-19T03:30:20;10.86;87.10
52656;SHT85;35474;51.032;6.998;2023-02-19T03:32:54;10.87;86.87
52656;SHT85;35474;51.032;6.998;2023-02-19T03:35:43;10.84;87.08
52656;SHT85;35474;51.032;6.998;2023-02-19T03:38:19;10.80;87.12
52656;SHT85;35474;51.032;6.998;2023-02-19T03:43:33;10.83;87.13
52656;SHT85;35474;51.032;6.998;2023-02-19T03:46:12;10.83;86.90
52656;SHT85;35474;51.032;6.998;2023-02-19T03:48:52;10.84;86.61
52656;SHT85;35474;51.032;6.998;2023-02-19T03:51:27;10.86;86.67
52656;SHT85;35474;51.032;6.998;2023-02-19T03:54:22;10.84;86.62
52656;SHT85;35474;51.032;6.998;2023-02-19T03:57:10;10.81;86.54
52656;SHT85;35474;51.032;6.998;2023-02-19T04:00:01;10.83;86.48
52656;SHT85;35474;51.032;6.998;2023-02-19T04:02:33;10.75;86.95
52656;SHT85;35474;51.032;6.998;2023-02-19T04:05:20;10.60;87.97
52656;SHT85;35474;51.032;6.998;2023-02-19T04:07:52;10.60;88.19
52656;SHT85;35474;51.032;6.998;2023-02-19T04:10:22;10.63;87.76
52656;SHT85;35474;51.032;6.998;2023-02-19T04:12:52;10.66;87.57
52656;SHT85;35474;51.032;6.998;2023-02-19T04:15:24;10.70;87.33
52656;SHT85;35474;51.032;6.998;2023-02-19T04:17:57;10.69;87.22
52656;SHT85;35474;51.032;6.998;2023-02-19T04:20:28;10.65;87.35
52656;SHT85;35474;51.032;6.998;2023-02-19T04:22:57;10.59;87.72
52656;SHT85;35474;51.032;6.998;2023-02-19T04:25:23;10.60;87.81
52656;SHT85;35474;51.032;6.998;2023-02-19T04:27:51;10.55;88.16
52656;SHT85;35474;51.032;6.998;2023-02-19T04:30:18;10.52;87.90
52656;SHT85;35474;51.032;6.998;2023-02-19T04:32:44;10.49;88.28
52656;SHT85;35474;51.032;6.998;2023-02-19T04:35:11;10.49;88.47
52656;SHT85;35474;51.032;6.998;2023-02-19T04:37:37;10.52;88.10
52656;SHT85;35474;51.032;6.998;2023-02-19T04:40:04;10.42;88.81
52656;SHT85;35474;51.032;6.998;2023-02-19T04:42:30;10.31;89.72
52656;SHT85;35474;51.032;6.998;2023-02-19T04:44:57;10.29;89.97
52656;SHT85;35474;51.032;6.998;2023-02-19T04:47:23;10.21;90.37
52656;SHT85;35474;51.032;6.998;2023-02-19T04:49:50;10.21;90.57
52656;SHT85;35474;51.032;6.998;2023-02-19T04:52:16;10.22;90.63
52656;SHT85;35474;51.032;6.998;2023-02-19T04:54:43;10.21;90.55
52656;SHT85;35474;51.032;6.998;2023-02-19T04:57:09;10.18;90.48
52656;SHT85;35474;51.032;6.998;2023-02-19T04:59:36;10.18;90.73
52656;SHT85;35474;51.032;6.998;2023-02-19T05:02:02;10.24;90.53
52656;SHT85;35474;51.032;6.998;2023-02-19T05:04:29;10.20;90.55
52656;SHT85;35474;51.032;6.998;2023-02-19T05:06:56;10.20;90.43
52656;SHT85;35474;51.032;6.998;2023-02-19T05:09:22;10.17;90.45
52656;SHT85;35474;51.032;6.998;2023-02-19T05:11:49;10.20;90.50
52656;SHT85;35474;51.032;6.998;2023-02-19T05:14:15;10.20;90.12
52656;SHT85;35474;51.032;6.998;2023-02-19T05:16:42;10.20;89.86
52656;SHT85;35474;51.032;6.998;2023-02-19T05:19:12;10.12;90.17
52656;SHT85;35474;51.032;6.998;2023-02-19T05:21:38;10.07;90.82
52656;SHT85;35474;51.032;6.998;2023-02-19T05:24:06;9.98;91.21
52656;SHT85;35474;51.032;6.998;2023-02-19T05:26:32;9.95;91.23
52656;SHT85;35474;51.032;6.998;2023-02-19T05:28:59;10.01;90.60
52656;SHT85;35474;51.032;6.998;2023-02-19T05:31:26;10.01;90.49
52656;SHT85;35474;51.032;6.998;2023-02-19T05:33:55;9.98;90.78
52656;SHT85;35474;51.032;6.998;2023-02-19T05:36:22;10.00;90.76
52656;SHT85;35474;51.032;6.998;2023-02-19T05:38:53;10.00;90.62
52656;SHT85;35474;51.032;6.998;2023-02-19T05:41:24;10.00;90.83
52656;SHT85;35474;51.032;6.998;2023-02-19T05:43:52;10.04;90.42
52656;SHT85;35474;51.032;6.998;2023-02-19T05:46:20;10.02;90.45
52656;SHT85;35474;51.032;6.998;2023-02-19T05:48:49;10.04;90.37
52656;SHT85;35474;51.032;6.998;2023-02-19T05:51:18;10.00;90.63
52656;SHT85;35474;51.032;6.998;2023-02-19T05:53:46;10.00;90.59
52656;SHT85;35474;51.032;6.998;2023-02-19T05:59:00;9.98;90.50
52656;SHT85;35474;51.032;6.998;2023-02-19T06:01:29;9.97;90.46
52656;SHT85;35474;51.032;6.998;2023-02-19T06:03:56;9.91;90.32
52656;SHT85;35474;51.032;6.998;2023-02-19T06:06:23;9.93;90.51
52656;SHT85;35474;51.032;6.998;2023-02-19T06:08:50;9.93;90.47
52656;SHT85;35474;51.032;6.998;2023-02-19T06:11:17;9.93;90.23
52656;SHT85;35474;51.032;6.998;2023-02-19T06:13:44;9.90;90.07
52656;SHT85;35474;51.032;6.998;2023-02-19T06:16:11;9.90;90.25
52656;SHT85;35474;51.032;6.998;2023-02-19T06:18:38;9.89;90.31
52656;SHT85;35474;51.032;6.998;2023-02-19T06:21:08;9.90;90.33
52656;SHT85;35474;51.032;6.998;2023-02-19T06:23:37;9.91;90.35
52656;SHT85;35474;51.032;6.998;2023-02-19T06:26:08;9.94;90.10
52656;SHT85;35474;51.032;6.998;2023-02-19T06:28:39;9.93;90.17
52656;SHT85;35474;51.032;6.998;2023-02-19T06:31:07;9.89;90.17
52656;SHT85;35474;51.032;6.998;2023-02-19T06:33:35;9.89;90.01
52656;SHT85;35474;51.032;6.998;2023-02-19T06:36:05;9.90;89.84
52656;SHT85;35474;51.032;6.998;2023-02-19T06:38:33;9.86;89.84
52656;SHT85;35474;51.032;6.998;2023-02-19T06:41:00;9.95;89.11
52656;SHT85;35474;51.032;6.998;2023-02-19T06:43:28;9.95;89.03
52656;SHT85;35474;51.032;6.998;2023-02-19T06:45:59;9.95;89.22
52656;SHT85;35474;51.032;6.998;2023-02-19T06:48:27;9.93;89.04
52656;SHT85;35474;51.032;6.998;2023-02-19T06:50:55;9.97;88.56
52656;SHT85;35474;51.032;6.998;2023-02-19T06:53:23;9.95;88.60
52656;SHT85;35474;51.032;6.998;2023-02-19T06:58:27;9.86;89.21
52656;SHT85;35474;51.032;6.998;2023-02-19T07:00:54;9.79;89.66
52656;SHT85;35474;51.032;6.998;2023-02-19T07:03:20;9.77;89.78
52656;SHT85;35474;51.032;6.998;2023-02-19T07:05:47;9.77;89.95
52656;SHT85;35474;51.032;6.998;2023-02-19T07:08:14;9.74;89.94
52656;SHT85;35474;51.032;6.998;2023-02-19T07:10:43;9.77;89.68
52656;SHT85;35474;51.032;6.998;2023-02-19T07:13:10;9.74;89.46
52656;SHT85;35474;51.032;6.998;2023-02-19T07:15:37;9.80;89.36
52656;SHT85;35474;51.032;6.998;2023-02-19T07:18:03;9.77;89.24
52656;SHT85;35474;51.032;6.998;2023-02-19T07:20:32;9.83;89.00
52656;SHT85;35474;51.032;6.998;2023-02-19T07:23:00;9.84;89.15
52656;SHT85;35474;51.032;6.998;2023-02-19T07:25:27;9.86;88.80
52656;SHT85;35474;51.032;6.998;2023-02-19T07:27:53;9.89;88.90
52656;SHT85;35474;51.032;6.998;2023-02-19T07:32:34;9.84;88.82
52656;SHT85;35474;51.032;6.998;2023-02-19T07:35:01;9.81;88.91
52656;SHT85;35474;51.032;6.998;2023-02-19T07:37:27;9.86;88.83
52656;SHT85;35474;51.032;6.998;2023-02-19T07:39:54;9.86;88.88
52656;SHT85;35474;51.032;6.998;2023-02-19T07:42:20;9.89;88.81
52656;SHT85;35474;51.032;6.998;2023-02-19T07:44:47;9.83;88.89
52656;SHT85;35474;51.032;6.998;2023-02-19T07:47:14;9.84;89.20
52656;SHT85;35474;51.032;6.998;2023-02-19T07:49:40;9.81;89.36
52656;SHT85;35474;51.032;6.998;2023-02-19T07:52:07;9.84;89.26
52656;SHT85;35474;51.032;6.998;2023-02-19T07:54:39;9.80;89.46
52656;SHT85;35474;51.032;6.998;2023-02-19T07:57:06;9.79;89.38
52656;SHT85;35474;51.032;6.998;2023-02-19T07:59:33;9.83;89.35
52656;SHT85;35474;51.032;6.998;2023-02-19T08:02:00;9.81;89.34
52656;SHT85;35474;51.032;6.998;2023-02-19T08:04:47;9.71;89.59
52656;SHT85;35474;51.032;6.998;2023-02-19T08:07:16;9.67;90.01
52656;SHT85;35474;51.032;6.998;2023-02-19T08:09:46;9.67;89.97
52656;SHT85;35474;51.032;6.998;2023-02-19T08:12:32;9.69;89.98
52656;SHT85;35474;51.032;6.998;2023-02-19T08:15:25;9.70;89.67
52656;SHT85;35474;51.032;6.998;2023-02-19T08:17:52;9.73;89.39
52656;SHT85;35474;51.032;6.998;2023-02-19T08:20:21;9.71;89.28
52656;SHT85;35474;51.032;6.998;2023-02-19T08:22:48;9.73;89.45
52656;SHT85;35474;51.032;6.998;2023-02-19T08:25:14;9.74;89.28
52656;SHT85;35474;51.032;6.998;2023-02-19T08:27:41;9.80;89.25
52656;SHT85;35474;51.032;6.998;2023-02-19T08:30:07;9.86;89.09
52656;SHT85;35474;51.032;6.998;2023-02-19T08:32:34;9.86;88.97
52656;SHT85;35474;51.032;6.998;2023-02-19T08:35:00;9.89;88.89
52656;SHT85;35474;51.032;6.998;2023-02-19T08:37:27;9.94;88.72
52656;SHT85;35474;51.032;6.998;2023-02-19T08:39:53;9.94;88.58
52656;SHT85;35474;51.032;6.998;2023-02-19T08:42:20;10.00;88.27
52656;SHT85;35474;51.032;6.998;2023-02-19T08:44:48;10.07;88.09
52656;SHT85;35474;51.032;6.998;2023-02-19T08:47:14;10.10;87.43
52656;SHT85;35474;51.032;6.998;2023-02-19T08:49:41;10.08;87.18
52656;SHT85;35474;51.032;6.998;2023-02-19T08:52:07;10.20;86.96
52656;SHT85;35474;51.032;6.998;2023-02-19T08:54:33;10.14;87.04
52656;SHT85;35474;51.032;6.998;2023-02-19T08:57:02;10.12;86.85
52656;SHT85;35474;51.032;6.998;2023-02-19T08:59:30;10.14;86.86
52656;SHT85;35474;51.032;6.998;2023-02-19T09:01:57;10.14;86.73
52656;SHT85;35474;51.032;6.998;2023-02-19T09:04:30;10.17;86.35
52656;SHT85;35474;51.032;6.998;2023-02-19T09:07:01;10.18;86.40
52656;SHT85;35474;51.032;6.998;2023-02-19T09:09:30;10.20;86.20
52656;SHT85;35474;51.032;6.998;2023-02-19T09:12:05;10.24;86.15
52656;SHT85;35474;51.032;6.998;2023-02-19T09:14:36;10.28;85.72
52656;SHT85;35474;51.032;6.998;2023-02-19T09:17:10;10.35;85.49
52656;SHT85;35474;51.032;6.998;2023-02-19T09:19:37;10.38;85.56
52656;SHT85;35474;51.032;6.998;2023-02-19T09:22:06;10.31;85.26
52656;SHT85;35474;51.032;6.998;2023-02-19T09:24:32;10.28;85.29
52656;SHT85;35474;51.032;6.998;2023-02-19T09:26:59;10.49;85.05
52656;SHT85;35474;51.032;6.998;2023-02-19T09:29:28;10.46;84.75
52656;SHT85;35474;51.032;6.998;2023-02-19T09:31:55;10.39;83.70
52656;SHT85;35474;51.032;6.998;2023-02-19T09:34:27;10.44;84.05
52656;SHT85;35474;51.032;6.998;2023-02-19T09:36:56;10.42;84.12
52656;SHT85;35474;51.032;6.998;2023-02-19T09:39:22;10.41;83.84
52656;SHT85;35474;51.032;6.998;2023-02-19T09:42:31;10.45;83.92
52656;SHT85;35474;51.032;6.998;2023-02-19T09:44:45;10.39;83.77
52656;SHT85;35474;51.032;6.998;2023-02-19T09:47:18;10.44;83.81
52656;SHT85;35474;51.032;6.998;2023-02-19T09:49:47;10.38;84.47
52656;SHT85;35474;51.032;6.998;2023-02-19T09:52:33;10.26;85.54
52656;SHT85;35474;51.032;6.998;2023-02-19T09:57:52;10.18;85.99
52656;SHT85;35474;51.032;6.998;2023-02-19T10:00:21;10.12;85.84
52656;SHT85;35474;51.032;6.998;2023-02-19T10:02:54;10.18;85.59
52656;SHT85;35474;51.032;6.998;2023-02-19T10:05:29;10.14;86.29
52656;SHT85;35474;51.032;6.998;2023-02-19T10:07:56;10.07;86.76
52656;SHT85;35474;51.032;6.998;2023-02-19T10:10:25;10.07;87.30
52656;SHT85;35474;51.032;6.998;2023-02-19T10:13:09;10.20;87.16
52656;SHT85;35474;51.032;6.998;2023-02-19T10:18:26;10.12;87.50
52656;SHT85;35474;51.032;6.998;2023-02-19T10:21:00;10.05;87.74
52656;SHT85;35474;51.032;6.998;2023-02-19T10:23:27;9.91;88.84
52656;SHT85;35474;51.032;6.998;2023-02-19T10:25:55;9.74;90.19
52656;SHT85;35474;51.032;6.998;2023-02-19T10:28:23;9.70;91.06
52656;SHT85;35474;51.032;6.998;2023-02-19T10:30:55;9.60;91.68
52656;SHT85;35474;51.032;6.998;2023-02-19T10:33:23;9.70;91.36
52656;SHT85;35474;51.032;6.998;2023-02-19T10:35:51;9.86;91.17
52656;SHT85;35474;51.032;6.998;2023-02-19T10:38:21;9.97;90.56
52656;SHT85;35474;51.032;6.998;2023-02-19T10:41:15;10.10;89.44
52656;SHT85;35474;51.032;6.998;2023-02-19T10:43:53;10.24;89.30
52656;SHT85;35474;51.032;6.998;2023-02-19T10:46:28;10.35;89.13
52656;SHT85;35474;51.032;6.998;2023-02-19T10:48:59;10.25;88.68
52656;SHT85;35474;51.032;6.998;2023-02-19T10:51:30;10.28;88.07
52656;SHT85;35474;51.032;6.998;2023-02-19T10:54:14;10.25;88.09
52656;SHT85;35474;51.032;6.998;2023-02-19T10:56:44;10.01;88.22
52656;SHT85;35474;51.032;6.998;2023-02-19T11:01:56;9.93;90.58
52656;SHT85;35474;51.032;6.998;2023-02-19T11:04:24;9.91;90.91
52656;SHT85;35474;51.032;6.998;2023-02-19T11:06:52;9.95;90.45
52656;SHT85;35474;51.032;6.998;2023-02-19T11:09:27;10.11;89.54
52656;SHT85;35474;51.032;6.998;2023-02-19T11:11:59;10.29;88.16
52656;SHT85;35474;51.032;6.998;2023-02-19T11:14:29;10.42;87.74
52656;SHT85;35474;51.032;6.998;2023-02-19T11:16:59;10.62;87.31
52656;SHT85;35474;51.032;6.998;2023-02-19T11:19:37;10.63;86.62
52656;SHT85;35474;51.032;6.998;2023-02-19T11:25:02;10.96;84.21
52656;SHT85;35474;51.032;6.998;2023-02-19T11:27:32;11.01;84.10
52656;SHT85;35474;51.032;6.998;2023-02-19T11:30:19;10.93;83.12
52656;SHT85;35474;51.032;6.998;2023-02-19T11:35:43;11.03;82.19
52656;SHT85;35474;51.032;6.998;2023-02-19T11:38:11;11.01;82.60
52656;SHT85;35474;51.032;6.998;2023-02-19T11:43:17;11.17;82.15
52656;SHT85;35474;51.032;6.998;2023-02-19T11:54:24;11.06;80.72
52656;SHT85;35474;51.032;6.998;2023-02-19T11:57:26;10.97;81.92
52656;SHT85;35474;51.032;6.998;2023-02-19T12:00:31;11.00;82.25
52656;SHT85;35474;51.032;6.998;2023-02-19T12:22:20;11.57;78.74
52656;SHT85;35474;51.032;6.998;2023-02-19T12:24:59;11.51;78.46
52656;SHT85;35474;51.032;6.998;2023-02-19T12:38:30;11.32;77.69
52656;SHT85;35474;51.032;6.998;2023-02-19T12:43:36;11.31;77.32
52656;SHT85;35474;51.032;6.998;2023-02-19T12:46:11;11.31;76.82
52656;SHT85;35474;51.032;6.998;2023-02-19T12:48:47;11.23;77.40
52656;SHT85;35474;51.032;6.998;2023-02-19T12:51:22;11.20;77.81
52656;SHT85;35474;51.032;6.998;2023-02-19T12:54:00;11.27;78.13
52656;SHT85;35474;51.032;6.998;2023-02-19T13:02:02;11.31;78.66
52656;SHT85;35474;51.032;6.998;2023-02-19T13:07:15;11.34;79.16
52656;SHT85;35474;51.032;6.998;2023-02-19T13:09:50;11.27;78.84
52656;SHT85;35474;51.032;6.998;2023-02-19T13:12:28;11.24;78.72
52656;SHT85;35474;51.032;6.998;2023-02-19T13:15:00;11.20;78.61
52656;SHT85;35474;51.032;6.998;2023-02-19T13:20:47;11.16;78.09
52656;SHT85;35474;51.032;6.998;2023-02-19T13:23:03;11.17;78.17
52656;SHT85;35474;51.032;6.998;2023-02-19T13:26:03;11.31;78.48
52656;SHT85;35474;51.032;6.998;2023-02-19T13:37:48;11.52;76.98
52656;SHT85;35474;51.032;6.998;2023-02-19T13:40:35;11.51;76.79
52656;SHT85;35474;51.032;6.998;2023-02-19T13:43:05;11.42;76.81
52656;SHT85;35474;51.032;6.998;2023-02-19T13:45:45;11.49;76.65
52656;SHT85;35474;51.032;6.998;2023-02-19T13:48:13;11.39;76.71
52656;SHT85;35474;51.032;6.998;2023-02-19T13:53:55;11.31;76.89
52656;SHT85;35474;51.032;6.998;2023-02-19T14:14:44;10.93;79.91
52656;SHT85;35474;51.032;6.998;2023-02-19T14:17:27;10.66;81.17
52656;SHT85;35474;51.032;6.998;2023-02-19T14:28:42;10.35;84.44
52656;SHT85;35474;51.032;6.998;2023-02-19T14:31:06;10.29;85.24
52656;SHT85;35474;51.032;6.998;2023-02-19T14:33:37;10.26;85.17
52656;SHT85;35474;51.032;6.998;2023-02-19T14:39:00;10.33;85.28
52656;SHT85;35474;51.032;6.998;2023-02-19T14:41:36;10.25;84.10
52656;SHT85;35474;51.032;6.998;2023-02-19T14:44:05;10.24;84.43
52656;SHT85;35474;51.032;6.998;2023-02-19T14:49:18;10.02;85.25
52656;SHT85;35474;51.032;6.998;2023-02-19T14:51:49;9.98;86.22
52656;SHT85;35474;51.032;6.998;2023-02-19T14:54:20;9.89;86.82
52656;SHT85;35474;51.032;6.998;2023-02-19T14:56:58;9.83;87.64
52656;SHT85;35474;51.032;6.998;2023-02-19T14:59:27;9.74;88.42
52656;SHT85;35474;51.032;6.998;2023-02-19T15:04:34;9.84;88.28
52656;SHT85;35474;51.032;6.998;2023-02-19T15:07:04;9.90;88.14
52656;SHT85;35474;51.032;6.998;2023-02-19T15:09:35;9.87;88.13
52656;SHT85;35474;51.032;6.998;2023-02-19T15:12:06;10.00;87.60
52656;SHT85;35474;51.032;6.998;2023-02-19T15:15:05;10.08;86.96
52656;SHT85;35474;51.032;6.998;2023-02-19T15:17:32;10.10;86.13
52656;SHT85;35474;51.032;6.998;2023-02-19T15:20:07;10.08;86.11
52656;SHT85;35474;51.032;6.998;2023-02-19T15:22:37;10.11;85.82
52656;SHT85;35474;51.032;6.998;2023-02-19T15:25:06;10.17;85.40
52656;SHT85;35474;51.032;6.998;2023-02-19T15:27:38;10.18;85.35
52656;SHT85;35474;51.032;6.998;2023-02-19T15:30:14;10.24;85.18
52656;SHT85;35474;51.032;6.998;2023-02-19T15:32:55;10.14;84.71
52656;SHT85;35474;51.032;6.998;2023-02-19T15:35:26;10.20;84.55
52656;SHT85;35474;51.032;6.998;2023-02-19T15:37:54;10.21;84.45
52656;SHT85;35474;51.032;6.998;2023-02-19T15:40:23;10.18;84.65
52656;SHT85;35474;51.032;6.998;2023-02-19T15:42:55;10.17;84.94
52656;SHT85;35474;51.032;6.998;2023-02-19T15:45:23;10.10;84.84
52656;SHT85;35474;51.032;6.998;2023-02-19T15:47:58;9.97;85.66
52656;SHT85;35474;51.032;6.998;2023-02-19T15:50:32;9.93;85.75
52656;SHT85;35474;51.032;6.998;2023-02-19T15:55:42;9.87;85.44
52656;SHT85;35474;51.032;6.998;2023-02-19T16:03:30;9.93;86.02
52656;SHT85;35474;51.032;6.998;2023-02-19T16:06:01;9.87;85.37
52656;SHT85;35474;51.032;6.998;2023-02-19T16:08:37;10.05;85.04
52656;SHT85;35474;51.032;6.998;2023-02-19T16:11:51;10.04;85.04
52656;SHT85;35474;51.032;6.998;2023-02-19T16:17:05;10.07;84.75
52656;SHT85;35474;51.032;6.998;2023-02-19T16:19:56;10.07;84.30
52656;SHT85;35474;51.032;6.998;2023-02-19T16:22:26;10.05;84.43
52656;SHT85;35474;51.032;6.998;2023-02-19T16:25:01;10.05;84.24
52656;SHT85;35474;51.032;6.998;2023-02-19T16:27:40;10.08;84.24
52656;SHT85;35474;51.032;6.998;2023-02-19T16:32:40;10.08;84.20
52656;SHT85;35474;51.032;6.998;2023-02-19T16:38:17;10.08;84.66
52656;SHT85;35474;51.032;6.998;2023-02-19T16:43:22;10.20;84.03
52656;SHT85;35474;51.032;6.998;2023-02-19T16:45:51;10.07;83.79
52656;SHT85;35474;51.032;6.998;2023-02-19T16:48:18;10.08;84.13
52656;SHT85;35474;51.032;6.998;2023-02-19T16:50:46;10.10;83.73
52656;SHT85;35474;51.032;6.998;2023-02-19T16:53:20;10.02;83.03
52656;SHT85;35474;51.032;6.998;2023-02-19T16:55:50;10.02;82.91
52656;SHT85;35474;51.032;6.998;2023-02-19T16:58:17;10.07;82.58
52656;SHT85;35474;51.032;6.998;2023-02-19T17:00:44;9.98;82.02
52656;SHT85;35474;51.032;6.998;2023-02-19T17:03:12;9.93;82.09
52656;SHT85;35474;51.032;6.998;2023-02-19T17:05:40;9.89;82.51
52656;SHT85;35474;51.032;6.998;2023-02-19T17:10:49;9.73;83.12
52656;SHT85;35474;51.032;6.998;2023-02-19T17:13:15;9.71;83.43
52656;SHT85;35474;51.032;6.998;2023-02-19T17:15:42;9.76;83.46
52656;SHT85;35474;51.032;6.998;2023-02-19T17:18:09;9.73;83.32
52656;SHT85;35474;51.032;6.998;2023-02-19T17:20:36;9.74;82.68
52656;SHT85;35474;51.032;6.998;2023-02-19T17:23:04;9.79;82.66
52656;SHT85;35474;51.032;6.998;2023-02-19T17:25:30;9.71;82.14
52656;SHT85;35474;51.032;6.998;2023-02-19T17:27:56;9.70;82.01
52656;SHT85;35474;51.032;6.998;2023-02-19T17:30:27;9.73;81.73
52656;SHT85;35474;51.032;6.998;2023-02-19T17:32:56;9.74;81.61
52656;SHT85;35474;51.032;6.998;2023-02-19T17:35:22;9.76;82.01
52656;SHT85;35474;51.032;6.998;2023-02-19T17:37:49;9.76;81.65
52656;SHT85;35474;51.032;6.998;2023-02-19T17:42:58;9.77;81.21
52656;SHT85;35474;51.032;6.998;2023-02-19T17:45:24;9.76;81.44
52656;SHT85;35474;51.032;6.998;2023-02-19T17:47:51;9.69;80.90
52656;SHT85;35474;51.032;6.998;2023-02-19T17:50:22;9.83;81.12
52656;SHT85;35474;51.032;6.998;2023-02-19T17:52:50;9.71;80.03
52656;SHT85;35474;51.032;6.998;2023-02-19T17:55:17;9.69;79.87
52656;SHT85;35474;51.032;6.998;2023-02-19T17:57:44;9.64;79.20
52656;SHT85;35474;51.032;6.998;2023-02-19T18:00:12;9.63;79.02
52656;SHT85;35474;51.032;6.998;2023-02-19T18:02:40;9.60;77.96
52656;SHT85;35474;51.032;6.998;2023-02-19T18:05:06;9.57;78.25
52656;SHT85;35474;51.032;6.998;2023-02-19T18:07:33;9.54;78.24
52656;SHT85;35474;51.032;6.998;2023-02-19T18:10:01;9.43;78.01
52656;SHT85;35474;51.032;6.998;2023-02-19T18:12:28;9.49;77.89
52656;SHT85;35474;51.032;6.998;2023-02-19T18:14:55;9.39;77.39
52656;SHT85;35474;51.032;6.998;2023-02-19T18:17:22;9.32;76.95
52656;SHT85;35474;51.032;6.998;2023-02-19T18:19:50;9.32;77.19
52656;SHT85;35474;51.032;6.998;2023-02-19T18:22:17;9.29;77.49
52656;SHT85;35474;51.032;6.998;2023-02-19T18:24:50;9.33;76.95
52656;SHT85;35474;51.032;6.998;2023-02-19T18:27:18;9.31;76.66
52656;SHT85;35474;51.032;6.998;2023-02-19T18:29:52;9.32;75.28
52656;SHT85;35474;51.032;6.998;2023-02-19T18:32:20;9.25;75.15
52656;SHT85;35474;51.032;6.998;2023-02-19T18:34:49;9.21;75.40
52656;SHT85;35474;51.032;6.998;2023-02-19T18:37:17;9.16;75.73
52656;SHT85;35474;51.032;6.998;2023-02-19T18:39:44;9.18;75.44
52656;SHT85;35474;51.032;6.998;2023-02-19T18:42:11;9.11;75.25